sensor_id;sensor_type;location;lat;lon;timestamp;temperature;humidity
39045;DHT22;52192;52.002;5.956;2024-03-23T00:53:43;10.60;84.20
39045;DHT22;52192;52.002;5.956;2024-03-23T00:56:09;10.60;84.10
39045;DHT22;52192;52.002;5.956;2024-03-23T00:58:35;10.60;84.20
39045;DHT22;52192;52.002;5.956;2024-03-23T01:01:01;10.60;84.20
39045;DHT22;52192;52.002;5.956;2024-03-23T01:03:29;10.60;84.20
39045;DHT22;52192;52.002;5.956;2024-03-23T01:06:01;10.60;84.20
39045;DHT22;52192;52.002;5.956;2024-03-23T01:08:27;10.60;84.20
39045;DHT22;52192;52.002;5.956;2024-03-23T01:11:01;10.50;84.20
39045;DHT22;52192;52.002;5.956;2024-03-23T01:13:28;10.50;84.30
39045;DHT22;52192;52.002;5.956;2024-03-23T01:15:55;10.50;84.30
39045;DHT22;52192;52.002;5.956;2024-03-23T01:18:22;10.50;84.30
39045;DHT22;52192;52.002;5.956;2024-03-23T01:20:48;10.40;84.30
39045;DHT22;52192;52.002;5.956;2024-03-23T01:23:14;10.40;84.50
39045;DHT22;52192;52.002;5.956;2024-03-23T01:25:41;10.30;84.50
39045;DHT22;52192;52.002;5.956;2024-03-23T01:28:07;10.30;84.70
39045;DHT22;52192;52.002;5.956;2024-03-23T01:30:34;10.20;84.70
39045;DHT22;52192;52.002;5.956;2024-03-23T01:33:00;10.30;84.70
39045;DHT22;52192;52.002;5.956;2024-03-23T01:35:27;10.30;84.70
39045;DHT22;52192;52.002;5.956;2024-03-23T01:37:53;10.30;84.60
39045;DHT22;52192;52.002;5.956;2024-03-23T01:40:19;10.30;84.70
39045;DHT22;52192;52.002;5.956;2024-03-23T01:42:58;10.30;84.70
39045;DHT22;52192;52.002;5.956;2024-03-23T01:45:24;10.30;84.60
39045;DHT22;52192;52.002;5.956;2024-03-23T01:47:53;10.40;84.60
39045;DHT22;52192;52.002;5.956;2024-03-23T01:50:22;10.40;84.60
39045;DHT22;52192;52.002;5.956;2024-03-23T01:52:50;10.40;84.50
39045;DHT22;52192;52.002;5.956;2024-03-23T01:55:16;10.30;84.50
39045;DHT22;52192;52.002;5.956;2024-03-23T01:57:42;10.30;84.50
39045;DHT22;52192;52.002;5.956;2024-03-23T02:00:08;10.30;84.60
39045;DHT22;52192;52.002;5.956;2024-03-23T02:02:46;10.30;84.70
39045;DHT22;52192;52.002;5.956;2024-03-23T02:05:13;10.20;84.70
39045;DHT22;52192;52.002;5.956;2024-03-23T02:07:40;10.20;84.80
39045;DHT22;52192;52.002;5.956;2024-03-23T02:10:10;10.20;84.90
39045;DHT22;52192;52.002;5.956;2024-03-23T02:12:36;10.20;84.90
39045;DHT22;52192;52.002;5.956;2024-03-23T02:15:03;10.20;84.70
39045;DHT22;52192;52.002;5.956;2024-03-23T02:17:31;10.30;84.60
39045;DHT22;52192;52.002;5.956;2024-03-23T02:19:57;10.20;84.70
39045;DHT22;52192;52.002;5.956;2024-03-23T02:22:23;10.20;84.70
39045;DHT22;52192;52.002;5.956;2024-03-23T02:24:50;10.20;84.70
39045;DHT22;52192;52.002;5.956;2024-03-23T02:27:16;10.20;84.80
39045;DHT22;52192;52.002;5.956;2024-03-23T02:29:42;10.20;84.90
39045;DHT22;52192;52.002;5.956;2024-03-23T02:32:08;10.10;84.80
39045;DHT22;52192;52.002;5.956;2024-03-23T02:34:36;10.10;84.90
39045;DHT22;52192;52.002;5.956;2024-03-23T02:37:03;10.10;84.80
39045;DHT22;52192;52.002;5.956;2024-03-23T02:39:35;10.10;84.80
39045;DHT22;52192;52.002;5.956;2024-03-23T02:42:01;10.10;84.80
39045;DHT22;52192;52.002;5.956;2024-03-23T02:44:27;10.10;84.80
39045;DHT22;52192;52.002;5.956;2024-03-23T02:46:53;10.10;84.70
39045;DHT22;52192;52.002;5.956;2024-03-23T02:49:19;10.10;84.70
39045;DHT22;52192;52.002;5.956;2024-03-23T02:51:47;10.10;84.70
39045;DHT22;52192;52.002;5.956;2024-03-23T02:54:14;10.10;84.70
39045;DHT22;52192;52.002;5.956;2024-03-23T02:56:40;10.00;84.80
39045;DHT22;52192;52.002;5.956;2024-03-23T02:59:06;9.90;84.90
39045;DHT22;52192;52.002;5.956;2024-03-23T03:01:32;9.90;84.90
39045;DHT22;52192;52.002;5.956;2024-03-23T03:03:58;9.90;85.00
39045;DHT22;52192;52.002;5.956;2024-03-23T03:06:28;9.90;84.90
39045;DHT22;52192;52.002;5.956;2024-03-23T03:08:54;9.90;85.00
39045;DHT22;52192;52.002;5.956;2024-03-23T03:11:20;9.80;85.00
39045;DHT22;52192;52.002;5.956;2024-03-23T03:13:46;9.80;85.20
39045;DHT22;52192;52.002;5.956;2024-03-23T03:16:12;9.70;85.30
39045;DHT22;52192;52.002;5.956;2024-03-23T03:18:38;9.70;85.50
39045;DHT22;52192;52.002;5.956;2024-03-23T03:21:06;9.70;85.50
39045;DHT22;52192;52.002;5.956;2024-03-23T03:23:39;9.60;85.40
39045;DHT22;52192;52.002;5.956;2024-03-23T03:26:05;9.60;85.50
39045;DHT22;52192;52.002;5.956;2024-03-23T03:28:32;9.60;85.50
39045;DHT22;52192;52.002;5.956;2024-03-23T03:30:59;9.60;85.40
39045;DHT22;52192;52.002;5.956;2024-03-23T03:33:26;9.60;85.30
39045;DHT22;52192;52.002;5.956;2024-03-23T03:35:53;9.50;85.30
39045;DHT22;52192;52.002;5.956;2024-03-23T03:38:19;9.50;85.40
39045;DHT22;52192;52.002;5.956;2024-03-23T03:40:45;9.50;85.40
39045;DHT22;52192;52.002;5.956;2024-03-23T03:43:10;9.50;85.40
39045;DHT22;52192;52.002;5.956;2024-03-23T03:45:36;9.40;85.40
39045;DHT22;52192;52.002;5.956;2024-03-23T03:48:03;9.40;85.50
39045;DHT22;52192;52.002;5.956;2024-03-23T03:50:28;9.40;85.50
39045;DHT22;52192;52.002;5.956;2024-03-23T03:52:54;9.40;85.40
39045;DHT22;52192;52.002;5.956;2024-03-23T03:55:20;9.40;85.50
39045;DHT22;52192;52.002;5.956;2024-03-23T03:57:46;9.40;85.30
39045;DHT22;52192;52.002;5.956;2024-03-23T04:00:12;9.40;85.20
39045;DHT22;52192;52.002;5.956;2024-03-23T04:02:38;9.40;85.10
39045;DHT22;52192;52.002;5.956;2024-03-23T04:05:05;9.40;85.10
39045;DHT22;52192;52.002;5.956;2024-03-23T04:07:31;9.30;85.00
39045;DHT22;52192;52.002;5.956;2024-03-23T04:09:57;9.30;85.00
39045;DHT22;52192;52.002;5.956;2024-03-23T04:12:23;9.20;85.00
39045;DHT22;52192;52.002;5.956;2024-03-23T04:14:49;9.20;85.00
39045;DHT22;52192;52.002;5.956;2024-03-23T04:17:15;9.20;85.10
39045;DHT22;52192;52.002;5.956;2024-03-23T04:19:42;9.10;85.10
39045;DHT22;52192;52.002;5.956;2024-03-23T04:22:08;9.00;85.20
39045;DHT22;52192;52.002;5.956;2024-03-23T04:24:34;9.00;85.30
39045;DHT22;52192;52.002;5.956;2024-03-23T04:27:00;9.00;85.30
39045;DHT22;52192;52.002;5.956;2024-03-23T04:29:26;8.90;85.40
39045;DHT22;52192;52.002;5.956;2024-03-23T04:31:52;8.90;85.30
39045;DHT22;52192;52.002;5.956;2024-03-23T04:34:18;8.90;85.30
39045;DHT22;52192;52.002;5.956;2024-03-23T04:36:44;8.90;85.20
39045;DHT22;52192;52.002;5.956;2024-03-23T04:39:10;8.80;85.20
39045;DHT22;52192;52.002;5.956;2024-03-23T04:41:36;8.90;85.10
39045;DHT22;52192;52.002;5.956;2024-03-23T04:44:02;8.90;84.90
39045;DHT22;52192;52.002;5.956;2024-03-23T04:46:28;8.80;84.80
39045;DHT22;52192;52.002;5.956;2024-03-23T04:48:54;8.80;84.90
39045;DHT22;52192;52.002;5.956;2024-03-23T04:51:24;8.80;84.80
39045;DHT22;52192;52.002;5.956;2024-03-23T04:53:51;8.80;84.80
39045;DHT22;52192;52.002;5.956;2024-03-23T04:56:17;8.80;84.80
39045;DHT22;52192;52.002;5.956;2024-03-23T04:58:44;8.80;85.40
39045;DHT22;52192;52.002;5.956;2024-03-23T05:01:14;8.70;84.70
39045;DHT22;52192;52.002;5.956;2024-03-23T05:03:39;8.80;84.60
39045;DHT22;52192;52.002;5.956;2024-03-23T05:06:05;8.70;84.40
39045;DHT22;52192;52.002;5.956;2024-03-23T05:08:32;8.70;84.50
39045;DHT22;52192;52.002;5.956;2024-03-23T05:10:58;8.70;84.40
39045;DHT22;52192;52.002;5.956;2024-03-23T05:13:24;8.70;84.30
39045;DHT22;52192;52.002;5.956;2024-03-23T05:15:56;8.70;84.30
39045;DHT22;52192;52.002;5.956;2024-03-23T05:18:22;8.60;84.10
39045;DHT22;52192;52.002;5.956;2024-03-23T05:20:48;8.60;84.20
39045;DHT22;52192;52.002;5.956;2024-03-23T05:23:14;8.60;84.20
39045;DHT22;52192;52.002;5.956;2024-03-23T05:25:41;8.60;84.30
39045;DHT22;52192;52.002;5.956;2024-03-23T05:28:07;8.60;84.80
39045;DHT22;52192;52.002;5.956;2024-03-23T05:30:33;8.60;84.30
39045;DHT22;52192;52.002;5.956;2024-03-23T05:32:58;8.60;84.20
39045;DHT22;52192;52.002;5.956;2024-03-23T05:35:24;8.60;84.40
39045;DHT22;52192;52.002;5.956;2024-03-23T05:37:50;8.60;84.40
39045;DHT22;52192;52.002;5.956;2024-03-23T05:40:16;8.60;84.30
39045;DHT22;52192;52.002;5.956;2024-03-23T05:42:42;8.50;84.40
39045;DHT22;52192;52.002;5.956;2024-03-23T05:45:08;8.50;84.50
39045;DHT22;52192;52.002;5.956;2024-03-23T05:47:34;8.50;84.50
39045;DHT22;52192;52.002;5.956;2024-03-23T05:50:00;8.50;84.30
39045;DHT22;52192;52.002;5.956;2024-03-23T05:52:27;8.40;84.30
39045;DHT22;52192;52.002;5.956;2024-03-23T05:54:53;8.40;84.40
39045;DHT22;52192;52.002;5.956;2024-03-23T05:57:19;8.40;84.40
39045;DHT22;52192;52.002;5.956;2024-03-23T05:59:45;8.40;84.40
39045;DHT22;52192;52.002;5.956;2024-03-23T06:02:11;8.40;84.40
39045;DHT22;52192;52.002;5.956;2024-03-23T06:04:37;8.40;84.40
39045;DHT22;52192;52.002;5.956;2024-03-23T06:07:03;8.40;84.30
39045;DHT22;52192;52.002;5.956;2024-03-23T06:09:31;8.30;84.30
39045;DHT22;52192;52.002;5.956;2024-03-23T06:11:57;8.30;84.20
39045;DHT22;52192;52.002;5.956;2024-03-23T06:14:23;8.30;84.30
39045;DHT22;52192;52.002;5.956;2024-03-23T06:16:48;8.40;84.30
39045;DHT22;52192;52.002;5.956;2024-03-23T06:19:14;8.40;84.20
39045;DHT22;52192;52.002;5.956;2024-03-23T06:21:43;8.40;84.10
39045;DHT22;52192;52.002;5.956;2024-03-23T06:24:10;8.40;84.00
39045;DHT22;52192;52.002;5.956;2024-03-23T06:26:36;8.40;83.90
39045;DHT22;52192;52.002;5.956;2024-03-23T06:29:01;8.40;83.80
39045;DHT22;52192;52.002;5.956;2024-03-23T06:31:27;8.40;83.70
39045;DHT22;52192;52.002;5.956;2024-03-23T06:33:55;8.40;83.70
39045;DHT22;52192;52.002;5.956;2024-03-23T06:36:21;8.50;83.70
39045;DHT22;52192;52.002;5.956;2024-03-23T06:38:47;8.50;83.50
39045;DHT22;52192;52.002;5.956;2024-03-23T06:41:12;8.60;83.40
39045;DHT22;52192;52.002;5.956;2024-03-23T06:43:38;8.60;83.30
39045;DHT22;52192;52.002;5.956;2024-03-23T06:46:04;8.70;83.20
39045;DHT22;52192;52.002;5.956;2024-03-23T06:48:30;8.70;83.00
39045;DHT22;52192;52.002;5.956;2024-03-23T06:50:56;8.70;83.10
39045;DHT22;52192;52.002;5.956;2024-03-23T06:53:22;8.80;83.10
39045;DHT22;52192;52.002;5.956;2024-03-23T06:55:54;8.90;82.90
39045;DHT22;52192;52.002;5.956;2024-03-23T06:58:21;9.10;82.80
39045;DHT22;52192;52.002;5.956;2024-03-23T07:00:46;9.10;82.20
39045;DHT22;52192;52.002;5.956;2024-03-23T07:03:12;9.10;82.10
39045;DHT22;52192;52.002;5.956;2024-03-23T07:05:38;9.10;82.00
39045;DHT22;52192;52.002;5.956;2024-03-23T07:08:04;9.00;82.00
39045;DHT22;52192;52.002;5.956;2024-03-23T07:10:30;9.10;81.90
39045;DHT22;52192;52.002;5.956;2024-03-23T07:12:55;9.10;81.70
39045;DHT22;52192;52.002;5.956;2024-03-23T07:15:21;9.20;81.10
39045;DHT22;52192;52.002;5.956;2024-03-23T07:17:47;9.20;81.20
39045;DHT22;52192;52.002;5.956;2024-03-23T07:20:13;9.20;81.30
39045;DHT22;52192;52.002;5.956;2024-03-23T07:22:39;9.30;81.10
39045;DHT22;52192;52.002;5.956;2024-03-23T07:25:05;9.40;81.00
39045;DHT22;52192;52.002;5.956;2024-03-23T07:27:32;9.40;80.70
39045;DHT22;52192;52.002;5.956;2024-03-23T07:29:57;9.50;80.60
39045;DHT22;52192;52.002;5.956;2024-03-23T07:32:23;9.50;80.40
39045;DHT22;52192;52.002;5.956;2024-03-23T07:34:49;9.50;80.20
39045;DHT22;52192;52.002;5.956;2024-03-23T07:37:14;9.50;80.00
39045;DHT22;52192;52.002;5.956;2024-03-23T07:39:41;9.50;80.10
39045;DHT22;52192;52.002;5.956;2024-03-23T07:42:06;9.50;80.10
39045;DHT22;52192;52.002;5.956;2024-03-23T07:44:32;9.60;80.10
39045;DHT22;52192;52.002;5.956;2024-03-23T07:47:00;9.70;79.90
39045;DHT22;52192;52.002;5.956;2024-03-23T07:49:25;9.80;79.90
39045;DHT22;52192;52.002;5.956;2024-03-23T07:51:51;9.70;80.00
39045;DHT22;52192;52.002;5.956;2024-03-23T07:54:17;9.80;80.20
39045;DHT22;52192;52.002;5.956;2024-03-23T07:56:42;9.80;79.90
39045;DHT22;52192;52.002;5.956;2024-03-23T07:59:08;9.80;79.90
39045;DHT22;52192;52.002;5.956;2024-03-23T08:01:34;9.90;80.00
39045;DHT22;52192;52.002;5.956;2024-03-23T08:03:59;10.00;79.90
39045;DHT22;52192;52.002;5.956;2024-03-23T08:06:25;10.00;79.60
39045;DHT22;52192;52.002;5.956;2024-03-23T08:08:57;10.00;78.90
39045;DHT22;52192;52.002;5.956;2024-03-23T08:11:27;10.00;79.00
39045;DHT22;52192;52.002;5.956;2024-03-23T08:13:53;10.00;78.70
39045;DHT22;52192;52.002;5.956;2024-03-23T08:16:19;10.00;78.70
39045;DHT22;52192;52.002;5.956;2024-03-23T08:18:44;9.90;77.90
39045;DHT22;52192;52.002;5.956;2024-03-23T08:21:10;9.90;78.30
39045;DHT22;52192;52.002;5.956;2024-03-23T08:23:36;10.00;78.50
39045;DHT22;52192;52.002;5.956;2024-03-23T08:26:11;10.10;78.70
39045;DHT22;52192;52.002;5.956;2024-03-23T08:28:38;10.20;78.20
39045;DHT22;52192;52.002;5.956;2024-03-23T08:31:06;10.20;77.70
39045;DHT22;52192;52.002;5.956;2024-03-23T08:33:32;10.20;77.50
39045;DHT22;52192;52.002;5.956;2024-03-23T08:36:02;10.30;77.50
39045;DHT22;52192;52.002;5.956;2024-03-23T08:38:28;10.30;77.00
39045;DHT22;52192;52.002;5.956;2024-03-23T08:41:01;10.30;76.30
39045;DHT22;52192;52.002;5.956;2024-03-23T08:43:28;10.30;75.40
39045;DHT22;52192;52.002;5.956;2024-03-23T08:46:07;10.30;75.40
39045;DHT22;52192;52.002;5.956;2024-03-23T08:48:37;10.30;75.20
39045;DHT22;52192;52.002;5.956;2024-03-23T08:51:07;10.20;75.00
39045;DHT22;52192;52.002;5.956;2024-03-23T08:53:37;10.30;74.70
39045;DHT22;52192;52.002;5.956;2024-03-23T08:56:04;10.40;74.80
39045;DHT22;52192;52.002;5.956;2024-03-23T08:58:30;10.30;74.40
39045;DHT22;52192;52.002;5.956;2024-03-23T09:01:02;10.40;74.10
39045;DHT22;52192;52.002;5.956;2024-03-23T09:03:28;10.30;73.80
39045;DHT22;52192;52.002;5.956;2024-03-23T09:05:54;10.30;74.00
39045;DHT22;52192;52.002;5.956;2024-03-23T09:08:21;10.10;73.20
39045;DHT22;52192;52.002;5.956;2024-03-23T09:10:47;9.80;73.40
39045;DHT22;52192;52.002;5.956;2024-03-23T09:13:14;9.60;74.20
39045;DHT22;52192;52.002;5.956;2024-03-23T09:15:48;9.50;74.80
39045;DHT22;52192;52.002;5.956;2024-03-23T09:18:13;9.40;75.60
39045;DHT22;52192;52.002;5.956;2024-03-23T09:20:39;9.40;76.00
39045;DHT22;52192;52.002;5.956;2024-03-23T09:23:05;9.40;76.30
39045;DHT22;52192;52.002;5.956;2024-03-23T09:25:30;9.40;76.10
39045;DHT22;52192;52.002;5.956;2024-03-23T09:27:56;9.30;76.30
39045;DHT22;52192;52.002;5.956;2024-03-23T09:30:22;9.30;76.00
39045;DHT22;52192;52.002;5.956;2024-03-23T09:32:48;9.20;76.10
39045;DHT22;52192;52.002;5.956;2024-03-23T09:35:13;9.10;75.60
39045;DHT22;52192;52.002;5.956;2024-03-23T09:37:39;9.10;76.20
39045;DHT22;52192;52.002;5.956;2024-03-23T09:40:11;9.30;76.40
39045;DHT22;52192;52.002;5.956;2024-03-23T09:42:37;9.60;75.90
39045;DHT22;52192;52.002;5.956;2024-03-23T09:45:05;9.80;75.40
39045;DHT22;52192;52.002;5.956;2024-03-23T09:47:33;10.00;75.20
39045;DHT22;52192;52.002;5.956;2024-03-23T09:50:00;10.20;74.70
39045;DHT22;52192;52.002;5.956;2024-03-23T09:52:26;10.50;73.90
39045;DHT22;52192;52.002;5.956;2024-03-23T09:54:51;10.60;73.30
39045;DHT22;52192;52.002;5.956;2024-03-23T09:57:17;10.70;73.70
39045;DHT22;52192;52.002;5.956;2024-03-23T09:59:43;10.90;72.50
39045;DHT22;52192;52.002;5.956;2024-03-23T10:02:08;11.00;70.40
39045;DHT22;52192;52.002;5.956;2024-03-23T10:04:40;11.10;70.20
39045;DHT22;52192;52.002;5.956;2024-03-23T10:09:38;11.20;68.30
39045;DHT22;52192;52.002;5.956;2024-03-23T10:12:12;11.20;68.70
39045;DHT22;52192;52.002;5.956;2024-03-23T10:14:39;11.10;68.50
39045;DHT22;52192;52.002;5.956;2024-03-23T10:19:46;10.80;70.00
39045;DHT22;52192;52.002;5.956;2024-03-23T10:22:20;10.70;70.70
39045;DHT22;52192;52.002;5.956;2024-03-23T10:24:46;10.60;70.90
39045;DHT22;52192;52.002;5.956;2024-03-23T10:27:19;10.50;70.90
39045;DHT22;52192;52.002;5.956;2024-03-23T10:29:49;10.40;71.20
39045;DHT22;52192;52.002;5.956;2024-03-23T10:32:16;10.30;72.00
39045;DHT22;52192;52.002;5.956;2024-03-23T10:34:43;10.30;71.50
39045;DHT22;52192;52.002;5.956;2024-03-23T10:37:09;10.30;71.50
39045;DHT22;52192;52.002;5.956;2024-03-23T10:39:40;10.20;71.60
39045;DHT22;52192;52.002;5.956;2024-03-23T10:42:09;10.10;71.80
39045;DHT22;52192;52.002;5.956;2024-03-23T10:44:38;9.80;71.90
39045;DHT22;52192;52.002;5.956;2024-03-23T10:47:05;9.50;72.40
39045;DHT22;52192;52.002;5.956;2024-03-23T10:49:35;9.30;73.20
39045;DHT22;52192;52.002;5.956;2024-03-23T10:52:05;9.30;74.20
39045;DHT22;52192;52.002;5.956;2024-03-23T10:54:32;9.30;74.10
39045;DHT22;52192;52.002;5.956;2024-03-23T10:57:11;9.50;74.80
39045;DHT22;52192;52.002;5.956;2024-03-23T10:59:38;9.90;74.90
39045;DHT22;52192;52.002;5.956;2024-03-23T11:02:05;10.30;74.60
39045;DHT22;52192;52.002;5.956;2024-03-23T11:04:35;10.70;73.70
39045;DHT22;52192;52.002;5.956;2024-03-23T11:07:02;10.90;72.80
39045;DHT22;52192;52.002;5.956;2024-03-23T11:09:40;10.90;71.70
39045;DHT22;52192;52.002;5.956;2024-03-23T11:14:49;10.90;69.90
39045;DHT22;52192;52.002;5.956;2024-03-23T11:17:19;11.00;68.70
39045;DHT22;52192;52.002;5.956;2024-03-23T11:19:53;11.00;68.60
39045;DHT22;52192;52.002;5.956;2024-03-23T11:22:42;11.20;66.40
39045;DHT22;52192;52.002;5.956;2024-03-23T11:25:22;11.30;65.70
39045;DHT22;52192;52.002;5.956;2024-03-23T11:27:56;11.40;65.00
39045;DHT22;52192;52.002;5.956;2024-03-23T11:30:27;11.60;64.40
39045;DHT22;52192;52.002;5.956;2024-03-23T11:32:57;11.80;64.80
39045;DHT22;52192;52.002;5.956;2024-03-23T11:38:16;11.70;63.60
39045;DHT22;52192;52.002;5.956;2024-03-23T11:40:49;11.30;65.30
39045;DHT22;52192;52.002;5.956;2024-03-23T11:43:19;11.00;66.00
39045;DHT22;52192;52.002;5.956;2024-03-23T11:45:52;10.90;67.30
39045;DHT22;52192;52.002;5.956;2024-03-23T11:48:27;10.90;68.00
39045;DHT22;52192;52.002;5.956;2024-03-23T11:50:57;10.90;68.10
39045;DHT22;52192;52.002;5.956;2024-03-23T11:53:24;10.90;68.60
39045;DHT22;52192;52.002;5.956;2024-03-23T11:55:50;11.20;68.40
39045;DHT22;52192;52.002;5.956;2024-03-23T11:58:18;11.60;68.90
39045;DHT22;52192;52.002;5.956;2024-03-23T12:00:57;12.00;67.60
39045;DHT22;52192;52.002;5.956;2024-03-23T12:03:26;12.40;65.80
39045;DHT22;52192;52.002;5.956;2024-03-23T12:05:58;12.60;65.00
39045;DHT22;52192;52.002;5.956;2024-03-23T12:11:12;12.20;64.30
39045;DHT22;52192;52.002;5.956;2024-03-23T12:13:39;11.90;64.50
39045;DHT22;52192;52.002;5.956;2024-03-23T12:16:13;11.60;65.80
39045;DHT22;52192;52.002;5.956;2024-03-23T12:18:40;11.50;66.10
39045;DHT22;52192;52.002;5.956;2024-03-23T12:21:06;11.30;66.30
39045;DHT22;52192;52.002;5.956;2024-03-23T12:23:33;11.20;66.30
39045;DHT22;52192;52.002;5.956;2024-03-23T12:25:59;11.10;66.00
39045;DHT22;52192;52.002;5.956;2024-03-23T12:28:25;11.00;66.00
39045;DHT22;52192;52.002;5.956;2024-03-23T12:30:51;10.90;66.10
39045;DHT22;52192;52.002;5.956;2024-03-23T12:33:18;10.90;65.60
39045;DHT22;52192;52.002;5.956;2024-03-23T12:35:43;11.00;66.00
39045;DHT22;52192;52.002;5.956;2024-03-23T12:38:09;11.30;65.70
39045;DHT22;52192;52.002;5.956;2024-03-23T12:40:35;11.60;63.80
39045;DHT22;52192;52.002;5.956;2024-03-23T12:43:00;11.70;63.00
39045;DHT22;52192;52.002;5.956;2024-03-23T12:45:26;11.80;62.70
39045;DHT22;52192;52.002;5.956;2024-03-23T12:47:52;11.70;63.00
39045;DHT22;52192;52.002;5.956;2024-03-23T12:50:19;11.80;63.60
39045;DHT22;52192;52.002;5.956;2024-03-23T12:52:45;12.00;63.30
39045;DHT22;52192;52.002;5.956;2024-03-23T12:55:10;12.20;63.20
39045;DHT22;52192;52.002;5.956;2024-03-23T12:57:42;12.10;61.50
39045;DHT22;52192;52.002;5.956;2024-03-23T13:00:08;11.80;62.40
39045;DHT22;52192;52.002;5.956;2024-03-23T13:02:37;11.70;62.70
39045;DHT22;52192;52.002;5.956;2024-03-23T13:05:04;11.60;63.00
39045;DHT22;52192;52.002;5.956;2024-03-23T13:07:30;11.60;62.10
39045;DHT22;52192;52.002;5.956;2024-03-23T13:09:56;11.70;62.00
39045;DHT22;52192;52.002;5.956;2024-03-23T13:12:22;12.00;61.60
39045;DHT22;52192;52.002;5.956;2024-03-23T13:14:48;12.50;61.10
39045;DHT22;52192;52.002;5.956;2024-03-23T13:17:14;12.90;60.60
39045;DHT22;52192;52.002;5.956;2024-03-23T13:19:40;13.20;58.70
39045;DHT22;52192;52.002;5.956;2024-03-23T13:22:06;13.10;58.50
39045;DHT22;52192;52.002;5.956;2024-03-23T13:24:32;12.90;58.00
39045;DHT22;52192;52.002;5.956;2024-03-23T13:26:58;12.50;58.20
39045;DHT22;52192;52.002;5.956;2024-03-23T13:29:24;12.20;59.30
39045;DHT22;52192;52.002;5.956;2024-03-23T13:31:51;12.00;60.80
39045;DHT22;52192;52.002;5.956;2024-03-23T13:34:17;11.70;61.80
39045;DHT22;52192;52.002;5.956;2024-03-23T13:36:44;11.60;62.90
39045;DHT22;52192;52.002;5.956;2024-03-23T13:39:10;11.60;63.80
39045;DHT22;52192;52.002;5.956;2024-03-23T13:41:43;11.60;63.20
39045;DHT22;52192;52.002;5.956;2024-03-23T13:44:13;11.50;63.70
39045;DHT22;52192;52.002;5.956;2024-03-23T13:46:40;11.40;63.70
39045;DHT22;52192;52.002;5.956;2024-03-23T13:51:47;11.80;62.70
39045;DHT22;52192;52.002;5.956;2024-03-23T13:54:13;12.00;63.00
39045;DHT22;52192;52.002;5.956;2024-03-23T13:56:38;12.00;62.30
39045;DHT22;52192;52.002;5.956;2024-03-23T13:59:04;11.90;61.40
39045;DHT22;52192;52.002;5.956;2024-03-23T14:01:30;11.80;61.60
39045;DHT22;52192;52.002;5.956;2024-03-23T14:03:56;11.70;62.20
39045;DHT22;52192;52.002;5.956;2024-03-23T14:06:21;11.60;60.90
39045;DHT22;52192;52.002;5.956;2024-03-23T14:08:49;11.40;60.90
39045;DHT22;52192;52.002;5.956;2024-03-23T14:11:18;11.40;61.80
39045;DHT22;52192;52.002;5.956;2024-03-23T14:13:44;11.30;61.80
39045;DHT22;52192;52.002;5.956;2024-03-23T14:16:10;11.20;61.90
39045;DHT22;52192;52.002;5.956;2024-03-23T14:18:35;11.10;61.70
39045;DHT22;52192;52.002;5.956;2024-03-23T14:21:01;11.00;62.10
39045;DHT22;52192;52.002;5.956;2024-03-23T14:23:28;11.00;62.10
39045;DHT22;52192;52.002;5.956;2024-03-23T14:26:00;11.30;62.20
39045;DHT22;52192;52.002;5.956;2024-03-23T14:28:26;11.70;62.20
39045;DHT22;52192;52.002;5.956;2024-03-23T14:30:52;12.20;61.40
39045;DHT22;52192;52.002;5.956;2024-03-23T14:33:20;12.80;60.90
39045;DHT22;52192;52.002;5.956;2024-03-23T14:35:55;12.80;59.50
39045;DHT22;52192;52.002;5.956;2024-03-23T14:38:22;12.50;58.70
39045;DHT22;52192;52.002;5.956;2024-03-23T14:40:48;12.10;59.30
39045;DHT22;52192;52.002;5.956;2024-03-23T14:43:14;11.70;59.40
39045;DHT22;52192;52.002;5.956;2024-03-23T14:46:12;11.20;60.00
39045;DHT22;52192;52.002;5.956;2024-03-23T14:48:41;10.90;61.60
39045;DHT22;52192;52.002;5.956;2024-03-23T14:51:08;11.00;63.70
39045;DHT22;52192;52.002;5.956;2024-03-23T14:53:41;12.60;62.80
39045;DHT22;52192;52.002;5.956;2024-03-23T14:56:10;15.10;59.30
39045;DHT22;52192;52.002;5.956;2024-03-23T14:58:38;17.40;54.70
39045;DHT22;52192;52.002;5.956;2024-03-23T15:01:06;19.10;50.50
39045;DHT22;52192;52.002;5.956;2024-03-23T15:03:37;19.10;47.10
39045;DHT22;52192;52.002;5.956;2024-03-23T15:06:05;18.10;47.50
39045;DHT22;52192;52.002;5.956;2024-03-23T15:08:31;17.70;48.50
39045;DHT22;52192;52.002;5.956;2024-03-23T15:11:00;17.90;47.70
39045;DHT22;52192;52.002;5.956;2024-03-23T15:13:36;17.10;47.60
39045;DHT22;52192;52.002;5.956;2024-03-23T15:16:03;15.90;48.60
39045;DHT22;52192;52.002;5.956;2024-03-23T15:18:33;15.40;50.60
39045;DHT22;52192;52.002;5.956;2024-03-23T15:21:01;16.30;50.80
39045;DHT22;52192;52.002;5.956;2024-03-23T15:23:35;17.40;49.70
39045;DHT22;52192;52.002;5.956;2024-03-23T15:26:02;19.10;47.30
39045;DHT22;52192;52.002;5.956;2024-03-23T15:28:29;20.20;44.40
39045;DHT22;52192;52.002;5.956;2024-03-23T15:31:06;20.10;44.10
39045;DHT22;52192;52.002;5.956;2024-03-23T15:33:32;19.80;43.90
39045;DHT22;52192;52.002;5.956;2024-03-23T15:36:02;18.40;45.40
39045;DHT22;52192;52.002;5.956;2024-03-23T15:38:28;17.10;47.20
39045;DHT22;52192;52.002;5.956;2024-03-23T15:40:55;16.70;49.00
39045;DHT22;52192;52.002;5.956;2024-03-23T15:43:21;17.00;48.90
39045;DHT22;52192;52.002;5.956;2024-03-23T15:45:56;17.60;48.30
39045;DHT22;52192;52.002;5.956;2024-03-23T15:48:22;18.00;47.20
39045;DHT22;52192;52.002;5.956;2024-03-23T15:50:52;18.20;47.30
39045;DHT22;52192;52.002;5.956;2024-03-23T15:53:19;17.60;46.40
39045;DHT22;52192;52.002;5.956;2024-03-23T15:55:45;16.40;47.60
39045;DHT22;52192;52.002;5.956;2024-03-23T15:58:11;15.70;49.60
39045;DHT22;52192;52.002;5.956;2024-03-23T16:00:36;15.40;50.30
39045;DHT22;52192;52.002;5.956;2024-03-23T16:03:02;15.30;50.40
39045;DHT22;52192;52.002;5.956;2024-03-23T16:05:28;15.00;50.30
39045;DHT22;52192;52.002;5.956;2024-03-23T16:07:53;14.90;50.30
39045;DHT22;52192;52.002;5.956;2024-03-23T16:10:19;14.70;49.30
39045;DHT22;52192;52.002;5.956;2024-03-23T16:12:45;14.50;49.40
39045;DHT22;52192;52.002;5.956;2024-03-23T16:15:11;14.30;49.50
39045;DHT22;52192;52.002;5.956;2024-03-23T16:17:42;14.20;50.00
39045;DHT22;52192;52.002;5.956;2024-03-23T16:20:08;14.10;50.50
39045;DHT22;52192;52.002;5.956;2024-03-23T16:22:34;13.70;51.10
39045;DHT22;52192;52.002;5.956;2024-03-23T16:25:00;13.30;52.30
39045;DHT22;52192;52.002;5.956;2024-03-23T16:27:26;13.20;52.90
39045;DHT22;52192;52.002;5.956;2024-03-23T16:29:51;13.30;53.60
39045;DHT22;52192;52.002;5.956;2024-03-23T16:32:17;13.60;53.50
39045;DHT22;52192;52.002;5.956;2024-03-23T16:34:44;14.20;52.80
39045;DHT22;52192;52.002;5.956;2024-03-23T16:37:09;14.60;52.00
39045;DHT22;52192;52.002;5.956;2024-03-23T16:39:36;14.50;51.70
39045;DHT22;52192;52.002;5.956;2024-03-23T16:42:02;14.10;52.20
39045;DHT22;52192;52.002;5.956;2024-03-23T16:44:29;13.60;54.20
39045;DHT22;52192;52.002;5.956;2024-03-23T16:46:54;13.20;55.30